Time;durP1;ratioP1;P1;durP2;ratioP2;P2;SDS_P1;SDS_P2;PMS_P1;PMS_P2;Temp;Humidity;BMP_temperature;BMP_pressure;BME280_temperature;BME280_humidity;BME280_pressure;Samples;Min_cycle;Max_cycle;Signal;HPM_P1;HPM_P2
2021/09/26 00:00:26;;;;;;;;;2.50;2.50;;;;;;;;2779649;51;8766;-58
2021/09/26 00:02:52;;;;;;;;;1.00;1.00;;;;;;;;2779557;51;9496;-58
2021/09/26 00:05:17;;;;;;;;;2.67;2.33;;;;;;;;2779690;51;8766;-58
2021/09/26 00:07:43;;;;;;;;;2.67;2.33;;;;;;;;2779484;51;8758;-59
2021/09/26 00:10:10;;;;;;;;;3.00;2.00;;;;;;;;2779372;51;8916;-59
2021/09/26 00:12:36;;;;;;;;;1.25;1.00;;;;;;;;2779417;51;8758;-59
2021/09/26 00:15:02;;;;;;;;;3.75;3.00;;;;;;;;2779527;51;8884;-60
2021/09/26 00:17:28;;;;;;;;;1.00;1.00;;;;;;;;2779696;51;8782;-57
2021/09/26 00:19:54;;;;;;;;;1.00;1.00;;;;;;;;2779410;51;8782;-57
2021/09/26 00:22:19;;;;;;;;;1.67;1.67;;;;;;;;2779424;51;8880;-59
2021/09/26 00:24:45;;;;;;;;;1.67;1.67;;;;;;;;2779466;51;8919;-56
2021/09/26 00:27:12;;;;;;;;;2.00;2.00;;;;;;;;2778332;51;8777;-59
2021/09/26 00:29:38;;;;;;;;;3.50;2.00;;;;;;;;2773492;51;8809;-59
2021/09/26 00:32:04;;;;;;;;;3.00;3.00;;;;;;;;2773401;51;8773;-59
2021/09/26 00:34:30;;;;;;;;;1.00;1.00;;;;;;;;2773539;51;8773;-57
2021/09/26 00:36:55;;;;;;;;;1.00;1.00;;;;;;;;2773389;51;8788;-58
2021/09/26 00:39:21;;;;;;;;;2.67;2.00;;;;;;;;2773554;51;8911;-57
2021/09/26 00:41:48;;;;;;;;;3.00;2.00;;;;;;;;2773481;51;8822;-58
2021/09/26 00:44:14;;;;;;;;;2.25;2.25;;;;;;;;2773780;51;8769;-58
2021/09/26 00:46:40;;;;;;;;;1.00;0.67;;;;;;;;2773334;51;8781;-59
2021/09/26 00:49:05;;;;;;;;;2.00;2.00;;;;;;;;2773373;51;11382;-58
2021/09/26 00:51:31;;;;;;;;;2.33;2.33;;;;;;;;2773758;51;8788;-59
2021/09/26 00:53:57;;;;;;;;;0.67;0.67;;;;;;;;2773258;51;8887;-59
2021/09/26 00:56:23;;;;;;;;;1.75;1.75;;;;;;;;2773307;51;8788;-59
2021/09/26 00:58:49;;;;;;;;;2.75;1.50;;;;;;;;2773336;51;8785;-58
2021/09/26 01:01:15;;;;;;;;;2.67;2.67;;;;;;;;2773460;51;9461;-58
2021/09/26 01:03:41;;;;;;;;;4.00;2.00;;;;;;;;2773457;51;11473;-59
2021/09/26 01:06:15;;;;;;;;;2.33;2.00;;;;;;;;2773473;51;8761;-58
2021/09/26 01:08:59;;;;;;;;;2.75;2.50;;;;;;;;2773284;51;9549;-59
2021/09/26 01:11:43;;;;;;;;;1.75;1.75;;;;;;;;2773566;51;8777;-58
2021/09/26 01:14:22;;;;;;;;;1.50;1.50;;;;;;;;2773511;51;8896;-58
2021/09/26 01:16:58;;;;;;;;;3.50;2.50;;;;;;;;2773389;51;8773;-59
2021/09/26 01:19:42;;;;;;;;;2.75;2.75;;;;;;;;2773544;51;8793;-58
2021/09/26 01:22:15;;;;;;;;;0.00;0.00;;;;;;;;2773219;51;8799;-57
2021/09/26 01:24:44;;;;;;;;;3.00;2.00;;;;;;;;2773554;51;8777;-58
2021/09/26 01:27:24;;;;;;;;;2.00;2.00;;;;;;;;2773162;51;9366;-57
2021/09/26 01:29:56;;;;;;;;;2.50;2.00;;;;;;;;2773185;51;8781;-58
2021/09/26 01:32:23;;;;;;;;;3.75;3.75;;;;;;;;2773259;51;8790;-59
2021/09/26 01:34:55;;;;;;;;;2.75;2.75;;;;;;;;2773401;51;8813;-59
2021/09/26 01:37:27;;;;;;;;;2.75;2.50;;;;;;;;2773196;51;8761;-59
2021/09/26 01:39:58;;;;;;;;;2.75;2.50;;;;;;;;2773279;51;9390;-58
2021/09/26 01:42:27;;;;;;;;;1.75;1.75;;;;;;;;2773220;51;8805;-58
2021/09/26 01:44:55;;;;;;;;;3.75;3.00;;;;;;;;2773236;51;8858;-58
2021/09/26 01:47:22;;;;;;;;;5.00;3.00;;;;;;;;2773090;51;8769;-59
2021/09/26 01:49:52;;;;;;;;;2.25;2.25;;;;;;;;2772992;51;8805;-58
2021/09/26 01:52:20;;;;;;;;;1.00;1.00;;;;;;;;2772993;51;8884;-58
2021/09/26 01:54:46;;;;;;;;;3.00;3.00;;;;;;;;2773303;51;8777;-59
2021/09/26 01:57:12;;;;;;;;;3.00;3.00;;;;;;;;2773143;51;8777;-58
2021/09/26 01:59:38;;;;;;;;;5.00;2.33;;;;;;;;2773151;51;8860;-59
2021/09/26 02:02:04;;;;;;;;;2.75;2.75;;;;;;;;2772939;51;11133;-58
2021/09/26 02:04:30;;;;;;;;;3.00;2.33;;;;;;;;2773355;51;8761;-60
2021/09/26 02:06:56;;;;;;;;;3.00;3.00;;;;;;;;2773089;51;8765;-58
2021/09/26 02:09:22;;;;;;;;;3.00;2.50;;;;;;;;2772902;51;8792;-58
2021/09/26 02:11:49;;;;;;;;;4.50;3.50;;;;;;;;2773384;51;8764;-58
2021/09/26 02:14:15;;;;;;;;;3.50;3.50;;;;;;;;2773160;51;8891;-58
2021/09/26 02:16:41;;;;;;;;;2.50;2.50;;;;;;;;2773040;51;8847;-58
2021/09/26 02:19:07;;;;;;;;;4.25;3.25;;;;;;;;2773063;51;8761;-58
2021/09/26 02:21:33;;;;;;;;;4.00;2.00;;;;;;;;2773041;51;8860;-59
2021/09/26 02:23:59;;;;;;;;;2.00;2.00;;;;;;;;2772946;51;8776;-58
2021/09/26 02:26:25;;;;;;;;;3.00;2.50;;;;;;;;2773186;51;8780;-59
2021/09/26 02:28:51;;;;;;;;;6.00;4.50;;;;;;;;2773156;51;8761;-58
2021/09/26 02:31:17;;;;;;;;;3.67;2.67;;;;;;;;2773021;51;8793;-59
2021/09/26 02:33:45;;;;;;;;;3.50;3.50;;;;;;;;2773068;51;8773;-57
2021/09/26 02:36:11;;;;;;;;;5.25;3.50;;;;;;;;2773119;51;8806;-58
2021/09/26 02:38:37;;;;;;;;;4.75;4.75;;;;;;;;2772807;51;8777;-58
2021/09/26 02:41:09;;;;;;;;;3.33;3.00;;;;;;;;2772833;51;8793;-57
2021/09/26 02:43:43;;;;;;;;;2.75;2.50;;;;;;;;2772990;51;8761;-59
2021/09/26 02:46:11;;;;;;;;;5.00;3.00;;;;;;;;2773027;51;8780;-57
2021/09/26 02:48:37;;;;;;;;;4.00;3.00;;;;;;;;2773210;51;8777;-57
2021/09/26 02:51:02;;;;;;;;;3.50;3.00;;;;;;;;2772847;51;8927;-58
2021/09/26 02:53:28;;;;;;;;;2.00;2.00;;;;;;;;2773078;51;8773;-58
2021/09/26 02:55:56;;;;;;;;;6.33;3.00;;;;;;;;2773014;51;8796;-58
2021/09/26 02:58:22;;;;;;;;;5.50;3.00;;;;;;;;2772645;51;11434;-59
2021/09/26 03:00:49;;;;;;;;;3.50;3.50;;;;;;;;2772727;51;8872;-58
2021/09/26 03:03:17;;;;;;;;;3.00;3.00;;;;;;;;2772951;51;8757;-57
2021/09/26 03:05:43;;;;;;;;;2.00;2.00;;;;;;;;2772868;51;9437;-57
2021/09/26 03:08:09;;;;;;;;;2.25;2.25;;;;;;;;2772878;51;8769;-57
2021/09/26 03:10:35;;;;;;;;;2.25;2.25;;;;;;;;2773108;51;8864;-58
2021/09/26 03:13:01;;;;;;;;;3.00;3.00;;;;;;;;2772877;51;8781;-58
2021/09/26 03:15:27;;;;;;;;;3.00;3.00;;;;;;;;2773148;51;8789;-60
2021/09/26 03:17:53;;;;;;;;;2.67;2.33;;;;;;;;2773370;51;8792;-57
2021/09/26 03:20:18;;;;;;;;;3.33;2.33;;;;;;;;2774026;51;8781;-58
2021/09/26 03:22:44;;;;;;;;;2.67;2.67;;;;;;;;2773717;51;8761;-59
2021/09/26 03:25:10;;;;;;;;;7.33;4.00;;;;;;;;2774019;51;8777;-58
2021/09/26 03:27:36;;;;;;;;;3.00;2.67;;;;;;;;2773669;51;9438;-59
2021/09/26 03:30:01;;;;;;;;;4.50;3.25;;;;;;;;2773440;51;9009;-58
2021/09/26 03:32:27;;;;;;;;;2.00;2.00;;;;;;;;2773665;51;8879;-59
2021/09/26 03:34:53;;;;;;;;;2.33;2.33;;;;;;;;2773981;51;8781;-58
2021/09/26 03:37:18;;;;;;;;;2.00;2.00;;;;;;;;2773569;51;8867;-57
2021/09/26 03:39:44;;;;;;;;;4.00;3.00;;;;;;;;2773630;51;8776;-58
2021/09/26 03:42:10;;;;;;;;;3.33;3.33;;;;;;;;2774179;51;8777;-57
2021/09/26 03:44:35;;;;;;;;;4.00;4.00;;;;;;;;2773718;51;8777;-60
2021/09/26 03:47:01;;;;;;;;;2.67;2.00;;;;;;;;2773877;51;8867;-59
2021/09/26 03:49:26;;;;;;;;;2.00;2.00;;;;;;;;2773762;51;8773;-60
2021/09/26 03:51:52;;;;;;;;;3.00;2.33;;;;;;;;2773922;51;8835;-58
2021/09/26 03:54:18;;;;;;;;;2.00;2.00;;;;;;;;2773623;51;8887;-58
2021/09/26 03:56:44;;;;;;;;;3.00;3.00;;;;;;;;2774257;51;8868;-58
2021/09/26 03:59:11;;;;;;;;;6.33;4.00;;;;;;;;2773767;51;8769;-57
2021/09/26 04:01:37;;;;;;;;;2.00;2.00;;;;;;;;2773307;51;11198;-58
2021/09/26 04:04:02;;;;;;;;;4.25;3.25;;;;;;;;2773354;51;8899;-58
2021/09/26 04:06:28;;;;;;;;;4.00;1.67;;;;;;;;2773341;51;8860;-58
2021/09/26 04:08:54;;;;;;;;;3.00;3.00;;;;;;;;2773601;51;8863;-58
2021/09/26 04:11:20;;;;;;;;;5.00;5.00;;;;;;;;2773360;51;9571;-57
2021/09/26 04:13:46;;;;;;;;;4.50;4.00;;;;;;;;2773792;51;8758;-58
2021/09/26 04:16:11;;;;;;;;;2.75;2.75;;;;;;;;2773437;51;8825;-59
2021/09/26 04:18:37;;;;;;;;;3.00;3.00;;;;;;;;2773504;51;8879;-58
2021/09/26 04:21:02;;;;;;;;;6.00;4.67;;;;;;;;2773292;51;8778;-60
2021/09/26 04:23:28;;;;;;;;;4.00;4.00;;;;;;;;2773206;51;8891;-58
2021/09/26 04:25:54;;;;;;;;;5.33;4.33;;;;;;;;2773739;51;8785;-59
2021/09/26 04:28:19;;;;;;;;;5.00;4.00;;;;;;;;2773713;51;8780;-59
2021/09/26 04:30:45;;;;;;;;;5.00;4.00;;;;;;;;2773217;51;8891;-57
2021/09/26 04:33:10;;;;;;;;;4.00;4.00;;;;;;;;2773596;51;8788;-59
2021/09/26 04:35:36;;;;;;;;;3.67;3.67;;;;;;;;2773444;51;8793;-59
2021/09/26 04:38:02;;;;;;;;;6.33;6.33;;;;;;;;2773305;51;8777;-58
2021/09/26 04:40:27;;;;;;;;;3.67;3.67;;;;;;;;2773208;51;8789;-59
2021/09/26 04:42:53;;;;;;;;;5.00;5.00;;;;;;;;2773509;51;8785;-58
2021/09/26 04:45:18;;;;;;;;;5.00;5.00;;;;;;;;2773204;51;8777;-58
2021/09/26 04:47:44;;;;;;;;;3.00;3.00;;;;;;;;2773568;51;8793;-59
2021/09/26 04:50:10;;;;;;;;;4.67;4.00;;;;;;;;2773003;51;8799;-58
2021/09/26 04:52:37;;;;;;;;;3.40;2.40;;;;;;;;2773260;51;8765;-58
2021/09/26 04:55:03;;;;;;;;;2.80;2.80;;;;;;;;2773092;51;8757;-58
2021/09/26 04:57:28;;;;;;;;;3.60;3.00;;;;;;;;2773272;51;8791;-59
2021/09/26 04:59:54;;;;;;;;;2.00;2.00;;;;;;;;2773185;51;8781;-57
2021/09/26 05:02:20;;;;;;;;;2.50;2.50;;;;;;;;2773455;51;8781;-59
2021/09/26 05:04:45;;;;;;;;;2.00;2.00;;;;;;;;2773270;51;8785;-60
2021/09/26 05:07:11;;;;;;;;;3.25;1.50;;;;;;;;2773235;51;8781;-60
2021/09/26 05:09:38;;;;;;;;;3.00;2.00;;;;;;;;2773065;51;8818;-60
2021/09/26 05:12:03;;;;;;;;;3.80;2.00;;;;;;;;2773509;51;8761;-59
2021/09/26 05:14:29;;;;;;;;;3.25;3.25;;;;;;;;2773564;51;8773;-60
2021/09/26 05:16:55;;;;;;;;;2.00;2.00;;;;;;;;2773246;51;8787;-59
2021/09/26 05:19:20;;;;;;;;;1.75;1.75;;;;;;;;2773230;51;8854;-59
2021/09/26 05:21:46;;;;;;;;;2.00;2.00;;;;;;;;2777978;51;8767;-59
2021/09/26 05:24:11;;;;;;;;;1.00;1.00;;;;;;;;2773101;51;8769;-60
2021/09/26 05:26:37;;;;;;;;;3.00;2.00;;;;;;;;2773353;51;8769;-60
2021/09/26 05:29:05;;;;;;;;;3.50;2.00;;;;;;;;2773241;51;8769;-59
2021/09/26 05:31:31;;;;;;;;;2.00;1.00;;;;;;;;2773184;51;8784;-60
2021/09/26 05:33:57;;;;;;;;;3.00;2.00;;;;;;;;2773311;51;8765;-59
2021/09/26 05:36:22;;;;;;;;;1.50;1.50;;;;;;;;2773524;51;9419;-60
2021/09/26 05:38:48;;;;;;;;;1.25;0.75;;;;;;;;2773243;51;8777;-58
2021/09/26 05:41:13;;;;;;;;;3.25;2.00;;;;;;;;2772850;51;9446;-59
2021/09/26 05:43:39;;;;;;;;;3.00;2.00;;;;;;;;2773101;51;8773;-58
2021/09/26 05:46:05;;;;;;;;;1.00;1.00;;;;;;;;2773246;51;8781;-60
2021/09/26 05:48:30;;;;;;;;;2.75;1.50;;;;;;;;2773074;51;8891;-60
2021/09/26 05:50:56;;;;;;;;;1.00;1.00;;;;;;;;2772983;51;8785;-60
2021/09/26 05:53:22;;;;;;;;;0.25;0.25;;;;;;;;2773108;51;8781;-59
2021/09/26 05:55:48;;;;;;;;;2.00;2.00;;;;;;;;2773436;51;9433;-61
2021/09/26 05:58:14;;;;;;;;;1.00;1.00;;;;;;;;2773308;51;11449;-60
2021/09/26 06:00:39;;;;;;;;;2.00;2.00;;;;;;;;2773150;51;8796;-60
2021/09/26 06:03:05;;;;;;;;;2.00;2.00;;;;;;;;2773431;51;8874;-59
2021/09/26 06:05:30;;;;;;;;;2.50;2.50;;;;;;;;2772909;51;8753;-63
2021/09/26 06:07:56;;;;;;;;;1.00;1.00;;;;;;;;2773338;51;9422;-60
2021/09/26 06:10:22;;;;;;;;;1.00;1.00;;;;;;;;2773080;51;8789;-60
2021/09/26 06:12:47;;;;;;;;;2.00;2.00;;;;;;;;2772882;51;8781;-61
2021/09/26 06:15:13;;;;;;;;;0.50;0.00;;;;;;;;2772847;51;8977;-59
2021/09/26 06:17:39;;;;;;;;;2.00;2.00;;;;;;;;2773015;51;8785;-62
2021/09/26 06:20:05;;;;;;;;;2.00;2.00;;;;;;;;2772835;51;8785;-58
2021/09/26 06:22:31;;;;;;;;;0.80;0.80;;;;;;;;2772936;51;8780;-60
2021/09/26 06:24:58;;;;;;;;;2.75;2.75;;;;;;;;2772879;51;8777;-60
2021/09/26 06:27:24;;;;;;;;;2.00;2.00;;;;;;;;2772863;51;8777;-61
2021/09/26 06:29:49;;;;;;;;;1.40;1.40;;;;;;;;2777160;51;8864;-61
2021/09/26 06:32:15;;;;;;;;;3.00;2.00;;;;;;;;2780234;51;8783;-61
2021/09/26 06:34:41;;;;;;;;;2.75;2.75;;;;;;;;2784072;51;8784;-59
2021/09/26 06:37:07;;;;;;;;;2.75;2.50;;;;;;;;2784071;51;9440;-60
2021/09/26 06:39:33;;;;;;;;;1.50;1.50;;;;;;;;2778904;51;8813;-59
2021/09/26 06:41:59;;;;;;;;;5.20;4.00;;;;;;;;2780466;51;11380;-63
2021/09/26 06:44:25;;;;;;;;;0.20;0.20;;;;;;;;2779519;51;8770;-63
2021/09/26 06:46:50;;;;;;;;;2.00;2.00;;;;;;;;2784999;51;8768;-63
2021/09/26 06:49:16;;;;;;;;;1.00;1.00;;;;;;;;2782816;51;8798;-61
2021/09/26 06:51:42;;;;;;;;;3.00;2.00;;;;;;;;2778934;51;8794;-59
2021/09/26 06:54:07;;;;;;;;;1.33;0.33;;;;;;;;2779701;51;8976;-59
2021/09/26 06:56:33;;;;;;;;;0.75;0.75;;;;;;;;2779899;51;8798;-60
2021/09/26 06:58:58;;;;;;;;;2.00;0.00;;;;;;;;2784698;51;8796;-60
2021/09/26 07:01:24;;;;;;;;;1.67;1.67;;;;;;;;2785745;51;8892;-60
2021/09/26 07:03:50;;;;;;;;;1.67;0.00;;;;;;;;2786366;51;8771;-61
2021/09/26 07:06:15;;;;;;;;;1.00;1.00;;;;;;;;2785968;51;8763;-61
2021/09/26 07:08:41;;;;;;;;;2.00;1.00;;;;;;;;2785686;51;8816;-63
2021/09/26 07:11:07;;;;;;;;;1.00;1.00;;;;;;;;2785802;51;8792;-61
2021/09/26 07:13:32;;;;;;;;;0.00;0.00;;;;;;;;2786257;51;8942;-61
2021/09/26 07:15:58;;;;;;;;;0.00;0.00;;;;;;;;2781259;51;8786;-67
2021/09/26 07:18:23;;;;;;;;;1.33;0.33;;;;;;;;2779810;51;8778;-61
2021/09/26 07:20:49;;;;;;;;;0.33;0.33;;;;;;;;2779472;51;8775;-62
2021/09/26 07:23:14;;;;;;;;;0.67;0.67;;;;;;;;2779876;51;8782;-61
2021/09/26 07:25:40;;;;;;;;;0.67;0.67;;;;;;;;2779840;51;8770;-62
2021/09/26 07:28:06;;;;;;;;;0.00;0.00;;;;;;;;2779648;51;8782;-62
2021/09/26 07:30:32;;;;;;;;;2.00;1.00;;;;;;;;2779490;51;9442;-62
2021/09/26 07:32:57;;;;;;;;;1.75;1.75;;;;;;;;2779703;51;8886;-60
2021/09/26 07:35:24;;;;;;;;;0.00;0.00;;;;;;;;2779477;51;8770;-60
2021/09/26 07:37:49;;;;;;;;;0.00;0.00;;;;;;;;2779751;51;8860;-61
2021/09/26 07:40:15;;;;;;;;;1.00;0.00;;;;;;;;2779689;51;8779;-62
2021/09/26 07:42:41;;;;;;;;;0.00;0.00;;;;;;;;2779807;51;8781;-61
2021/09/26 07:45:09;;;;;;;;;3.67;1.00;;;;;;;;2779474;51;8762;-61
2021/09/26 07:47:35;;;;;;;;;3.00;3.00;;;;;;;;2779687;51;8774;-65
2021/09/26 07:50:01;;;;;;;;;3.00;2.00;;;;;;;;2783585;51;8764;-63
2021/09/26 07:52:27;;;;;;;;;2.00;2.00;;;;;;;;2785564;51;8792;-66
2021/09/26 07:54:53;;;;;;;;;3.25;3.00;;;;;;;;2785908;51;8772;-66
2021/09/26 07:57:21;;;;;;;;;0.67;0.67;;;;;;;;2785843;51;8902;-63
2021/09/26 07:59:47;;;;;;;;;2.00;1.50;;;;;;;;2785653;51;8783;-63
2021/09/26 08:02:13;;;;;;;;;1.33;1.33;;;;;;;;2785678;51;8759;-63
2021/09/26 08:04:38;;;;;;;;;2.00;0.00;;;;;;;;2785249;51;8774;-62
2021/09/26 08:07:04;;;;;;;;;0.33;0.33;;;;;;;;2785667;51;8768;-64
2021/09/26 08:09:30;;;;;;;;;2.67;2.67;;;;;;;;2784463;51;9436;-64
2021/09/26 08:11:55;;;;;;;;;2.00;2.00;;;;;;;;2778523;51;8847;-63
2021/09/26 08:14:21;;;;;;;;;2.00;1.00;;;;;;;;2779552;51;8766;-64
2021/09/26 08:16:47;;;;;;;;;0.00;0.00;;;;;;;;2779906;51;8771;-62
2021/09/26 08:19:12;;;;;;;;;1.00;0.00;;;;;;;;2779359;51;8763;-63
2021/09/26 08:21:38;;;;;;;;;1.00;1.00;;;;;;;;2779360;51;8873;-63
2021/09/26 08:24:06;;;;;;;;;2.33;2.33;;;;;;;;2779580;51;8770;-63
2021/09/26 08:26:32;;;;;;;;;1.25;1.25;;;;;;;;2779732;51;8774;-63
2021/09/26 08:28:58;;;;;;;;;1.00;1.00;;;;;;;;2779239;51;8782;-63
2021/09/26 08:31:24;;;;;;;;;2.33;1.33;;;;;;;;2779280;51;8774;-64
2021/09/26 08:33:49;;;;;;;;;1.33;1.33;;;;;;;;2779325;51;8771;-62
2021/09/26 08:36:15;;;;;;;;;0.00;0.00;;;;;;;;2779191;51;8777;-62
2021/09/26 08:38:40;;;;;;;;;2.50;2.00;;;;;;;;2779125;51;8782;-62
2021/09/26 08:41:06;;;;;;;;;1.75;1.75;;;;;;;;2779534;51;8877;-62
2021/09/26 08:43:33;;;;;;;;;1.20;1.20;;;;;;;;2779449;51;9517;-63
2021/09/26 08:45:59;;;;;;;;;2.00;2.00;;;;;;;;2779491;51;8759;-63
2021/09/26 08:48:26;;;;;;;;;1.75;0.50;;;;;;;;2779549;51;8862;-62
2021/09/26 08:50:52;;;;;;;;;2.60;2.00;;;;;;;;2785293;51;8889;-61
2021/09/26 08:53:21;;;;;;;;;1.25;1.25;;;;;;;;2785173;51;8786;-68
2021/09/26 08:55:46;;;;;;;;;2.00;2.00;;;;;;;;2785390;51;8768;-61
2021/09/26 08:58:13;;;;;;;;;0.00;0.00;;;;;;;;2785253;51;8798;-61
2021/09/26 09:00:39;;;;;;;;;3.20;3.20;;;;;;;;2785209;51;8776;-63
2021/09/26 09:03:09;;;;;;;;;2.00;1.25;;;;;;;;2783959;51;8770;-66
2021/09/26 09:05:42;;;;;;;;;4.00;4.00;;;;;;;;2778974;51;8785;-61
2021/09/26 09:08:14;;;;;;;;;2.80;2.80;;;;;;;;2779202;51;8886;-61
2021/09/26 09:10:42;;;;;;;;;3.00;3.00;;;;;;;;2779195;51;8881;-61
2021/09/26 09:13:10;;;;;;;;;3.20;3.20;;;;;;;;2773814;51;8799;-60
2021/09/26 09:15:36;;;;;;;;;7.00;6.00;;;;;;;;2778942;51;8763;-61
2021/09/26 09:18:03;;;;;;;;;2.20;2.20;;;;;;;;2779198;51;8747;-61
2021/09/26 09:20:29;;;;;;;;;5.60;5.60;;;;;;;;2779195;51;8767;-62
2021/09/26 09:23:06;;;;;;;;;6.00;6.00;;;;;;;;2779454;51;8905;-61
2021/09/26 09:25:45;;;;;;;;;3.40;2.40;;;;;;;;2779255;51;8882;-61
2021/09/26 09:28:10;;;;;;;;;6.80;6.80;;;;;;;;2773132;51;8780;-62
2021/09/26 09:30:41;;;;;;;;;7.75;7.75;;;;;;;;2772983;51;8809;-63
2021/09/26 09:33:08;;;;;;;;;7.00;7.00;;;;;;;;2777179;51;8743;-61
2021/09/26 09:35:52;;;;;;;;;10.40;9.80;;;;;;;;2778434;51;8762;-60
2021/09/26 09:38:19;;;;;;;;;7.60;6.20;;;;;;;;2778925;51;8896;-60
2021/09/26 09:40:48;;;;;;;;;5.00;5.00;;;;;;;;2779126;51;8759;-61
2021/09/26 09:43:13;;;;;;;;;9.00;9.00;;;;;;;;2778968;51;8754;-59
2021/09/26 09:45:47;;;;;;;;;13.67;12.67;;;;;;;;2779180;51;8771;-60
2021/09/26 09:48:20;;;;;;;;;6.00;6.00;;;;;;;;2779349;51;8762;-61
2021/09/26 09:50:48;;;;;;;;;7.75;7.75;;;;;;;;2773189;51;8808;-60
2021/09/26 09:53:28;;;;;;;;;8.00;7.25;;;;;;;;2773050;51;8769;-60
2021/09/26 09:56:16;;;;;;;;;9.50;9.50;;;;;;;;2772926;51;8780;-61
2021/09/26 09:58:42;;;;;;;;;11.75;11.75;;;;;;;;2770446;51;8769;-62
2021/09/26 10:01:10;;;;;;;;;13.67;13.67;;;;;;;;2773093;51;8818;-62
2021/09/26 10:03:43;;;;;;;;;11.75;11.75;;;;;;;;2772873;51;9422;-61
2021/09/26 10:06:22;;;;;;;;;6.25;6.25;;;;;;;;2772876;51;8879;-60
2021/09/26 10:08:48;;;;;;;;;9.25;9.25;;;;;;;;2772673;51;8891;-62
2021/09/26 10:11:13;;;;;;;;;11.33;11.33;;;;;;;;2772998;51;8785;-65
2021/09/26 10:13:39;;;;;;;;;13.00;13.00;;;;;;;;2772841;51;10810;-61
2021/09/26 10:16:05;;;;;;;;;13.00;13.00;;;;;;;;2772846;51;8769;-60
2021/09/26 10:18:32;;;;;;;;;16.75;16.75;;;;;;;;2776971;51;8852;-59
2021/09/26 10:20:57;;;;;;;;;22.25;22.25;;;;;;;;2779058;51;9770;-60
2021/09/26 10:23:23;;;;;;;;;18.50;18.50;;;;;;;;2778931;51;10121;-59
2021/09/26 10:25:49;;;;;;;;;25.00;25.00;;;;;;;;2779116;51;8889;-60
2021/09/26 10:28:16;;;;;;;;;21.75;21.75;;;;;;;;2779874;51;8898;-60
2021/09/26 10:30:43;;;;;;;;;19.00;18.00;;;;;;;;2779724;51;10053;-60
2021/09/26 10:33:09;;;;;;;;;20.00;20.00;;;;;;;;2779209;51;10335;-60
2021/09/26 10:35:35;;;;;;;;;24.25;24.25;;;;;;;;2780218;51;10582;-61
2021/09/26 10:38:00;;;;;;;;;13.25;12.75;;;;;;;;2779678;51;8885;-62
2021/09/26 10:40:26;;;;;;;;;14.75;14.25;;;;;;;;2779628;51;8790;-63
2021/09/26 10:42:51;;;;;;;;;15.75;15.75;;;;;;;;2780175;51;8886;-60
2021/09/26 10:45:24;;;;;;;;;17.50;17.50;;;;;;;;2779856;51;8908;-62
2021/09/26 10:47:54;;;;;;;;;18.25;18.25;;;;;;;;2779986;51;8790;-62
2021/09/26 10:50:20;;;;;;;;;5.00;4.50;;;;;;;;2784825;51;9536;-60
2021/09/26 10:52:48;;;;;;;;;10.00;10.00;;;;;;;;2785900;51;8759;-64
2021/09/26 10:55:22;;;;;;;;;4.80;4.80;;;;;;;;2785845;51;8764;-61
2021/09/26 10:58:00;;;;;;;;;8.00;8.00;;;;;;;;2785924;51;8768;-61
2021/09/26 11:00:30;;;;;;;;;12.25;11.00;;;;;;;;2786037;51;8780;-62
2021/09/26 11:02:56;;;;;;;;;12.50;12.50;;;;;;;;2785752;51;8893;-61
2021/09/26 11:05:27;;;;;;;;;18.50;18.50;;;;;;;;2786143;51;8796;-61
2021/09/26 11:07:53;;;;;;;;;14.50;14.50;;;;;;;;2786028;51;8788;-61
2021/09/26 11:10:32;;;;;;;;;19.75;19.75;;;;;;;;2785534;51;10122;-60
2021/09/26 11:13:06;;;;;;;;;17.50;17.50;;;;;;;;2785743;51;8748;-60
2021/09/26 11:15:31;;;;;;;;;14.25;14.25;;;;;;;;2785695;51;10242;-61
2021/09/26 11:17:58;;;;;;;;;15.00;15.00;;;;;;;;2782949;51;9753;-62
2021/09/26 11:20:26;;;;;;;;;15.33;15.33;;;;;;;;2779573;51;8814;-61
2021/09/26 11:23:04;;;;;;;;;17.67;17.67;;;;;;;;2780326;51;8878;-61
2021/09/26 11:25:48;;;;;;;;;11.33;11.33;;;;;;;;2780242;51;9174;-62
2021/09/26 11:28:23;;;;;;;;;16.00;16.00;;;;;;;;2780112;51;8911;-61
2021/09/26 11:30:49;;;;;;;;;13.75;12.75;;;;;;;;2779811;51;8794;-61
2021/09/26 11:33:14;;;;;;;;;9.00;9.00;;;;;;;;2779890;51;8782;-59
2021/09/26 11:35:40;;;;;;;;;8.67;8.67;;;;;;;;2779638;51;8791;-62
2021/09/26 11:38:06;;;;;;;;;9.33;9.33;;;;;;;;2779802;51;8762;-61
2021/09/26 11:41:07;;;;;;;;;13.25;13.25;;;;;;;;2779436;51;8797;-60
2021/09/26 11:43:37;;;;;;;;;6.00;6.00;;;;;;;;2760828;51;8798;-61
2021/09/26 11:46:19;;;;;;;;;10.00;10.00;;;;;;;;2776644;51;8907;-60
2021/09/26 11:48:45;;;;;;;;;12.50;10.25;;;;;;;;2780666;51;8780;-62
2021/09/26 11:51:12;;;;;;;;;6.33;6.33;;;;;;;;2785379;51;8876;-61
2021/09/26 11:53:39;;;;;;;;;13.50;13.25;;;;;;;;2785395;51;8918;-62
2021/09/26 11:56:12;;;;;;;;;9.75;9.25;;;;;;;;2785861;51;8768;-63
2021/09/26 11:58:38;;;;;;;;;9.75;9.75;;;;;;;;2785369;51;8779;-65
2021/09/26 12:01:03;;;;;;;;;17.00;17.00;;;;;;;;2785858;51;8798;-61
2021/09/26 12:03:33;;;;;;;;;13.67;13.67;;;;;;;;2785464;51;8768;-60
2021/09/26 12:05:58;;;;;;;;;8.25;8.25;;;;;;;;2785592;51;8772;-61
2021/09/26 12:08:25;;;;;;;;;9.67;8.00;;;;;;;;2785387;51;8764;-64
2021/09/26 12:11:01;;;;;;;;;5.25;5.25;;;;;;;;2785857;51;8776;-60
2021/09/26 12:13:26;;;;;;;;;10.20;10.20;;;;;;;;2785791;51;8780;-60
2021/09/26 12:15:52;;;;;;;;;7.00;7.00;;;;;;;;2785223;51;8787;-59
2021/09/26 12:18:20;;;;;;;;;8.50;8.50;;;;;;;;2781731;51;8750;-62
2021/09/26 12:20:46;;;;;;;;;8.60;8.60;;;;;;;;2779695;51;8789;-62
2021/09/26 12:23:21;;;;;;;;;6.80;6.80;;;;;;;;2779398;51;8778;-61
2021/09/26 12:25:47;;;;;;;;;9.80;9.60;;;;;;;;2779965;51;8779;-63
2021/09/26 12:28:19;;;;;;;;;8.60;8.60;;;;;;;;2779550;51;8859;-60
2021/09/26 12:30:49;;;;;;;;;7.00;7.00;;;;;;;;2779677;51;8846;-62
2021/09/26 12:33:17;;;;;;;;;9.00;9.00;;;;;;;;2779312;51;8770;-62
2021/09/26 12:35:46;;;;;;;;;5.40;5.40;;;;;;;;2779812;51;8877;-61
2021/09/26 12:38:20;;;;;;;;;3.00;3.00;;;;;;;;2779416;51;8897;-60
2021/09/26 12:40:54;;;;;;;;;4.60;4.60;;;;;;;;2779601;51;8789;-61
2021/09/26 12:43:24;;;;;;;;;6.80;6.80;;;;;;;;2779356;51;8762;-62
2021/09/26 12:45:50;;;;;;;;;7.60;7.60;;;;;;;;2779312;51;8766;-60
2021/09/26 12:48:16;;;;;;;;;5.00;5.00;;;;;;;;2779038;51;8785;-60
2021/09/26 12:50:47;;;;;;;;;1.00;1.00;;;;;;;;2773134;51;11404;-60
2021/09/26 12:53:16;;;;;;;;;4.00;4.00;;;;;;;;2773167;51;8769;-59
2021/09/26 12:55:42;;;;;;;;;6.20;6.20;;;;;;;;2773219;51;8797;-61
2021/09/26 12:58:15;;;;;;;;;3.40;3.40;;;;;;;;2773285;51;8891;-60
2021/09/26 13:00:41;;;;;;;;;2.00;2.00;;;;;;;;2773422;51;8792;-61
2021/09/26 13:03:15;;;;;;;;;7.00;7.00;;;;;;;;2773152;51;9422;-62
2021/09/26 13:05:43;;;;;;;;;5.40;5.20;;;;;;;;2773636;51;8753;-61
2021/09/26 13:08:17;;;;;;;;;4.20;4.20;;;;;;;;2773270;51;8761;-61
2021/09/26 13:10:57;;;;;;;;;6.20;6.20;;;;;;;;2773682;51;8801;-62
2021/09/26 13:13:29;;;;;;;;;3.00;3.00;;;;;;;;2773268;51;8765;-60
2021/09/26 13:15:55;;;;;;;;;3.00;3.00;;;;;;;;2773521;51;9406;-61
2021/09/26 13:18:20;;;;;;;;;5.25;3.00;;;;;;;;2776668;51;8862;-61
2021/09/26 13:20:47;;;;;;;;;1.00;1.00;;;;;;;;2779404;51;8985;-60
2021/09/26 13:23:22;;;;;;;;;1.00;1.00;;;;;;;;2779209;51;9360;-60
2021/09/26 13:25:47;;;;;;;;;2.00;2.00;;;;;;;;2779039;51;8866;-62
2021/09/26 13:28:15;;;;;;;;;0.00;0.00;;;;;;;;2779048;51;8774;-62
2021/09/26 13:30:40;;;;;;;;;2.00;2.00;;;;;;;;2779044;51;11552;-62
2021/09/26 13:33:18;;;;;;;;;1.00;1.00;;;;;;;;2779187;51;9461;-61
2021/09/26 13:35:45;;;;;;;;;0.00;0.00;;;;;;;;2779083;51;8787;-60
2021/09/26 13:38:36;;;;;;;;;1.60;1.60;;;;;;;;2779078;51;8778;-63
2021/09/26 13:41:06;;;;;;;;;0.00;0.00;;;;;;;;2769485;51;8794;-61
2021/09/26 13:43:43;;;;;;;;;0.00;0.00;;;;;;;;2778732;51;8947;-64
2021/09/26 13:46:09;;;;;;;;;2.20;1.00;;;;;;;;2779056;51;8762;-59
2021/09/26 13:48:39;;;;;;;;;1.00;1.00;;;;;;;;2779786;51;8779;-61
2021/09/26 13:51:06;;;;;;;;;1.25;0.50;;;;;;;;2784978;51;8788;-60
2021/09/26 13:53:31;;;;;;;;;0.00;0.00;;;;;;;;2785162;51;9416;-59
2021/09/26 13:55:57;;;;;;;;;0.33;0.33;;;;;;;;2785115;51;8944;-60
2021/09/26 13:58:22;;;;;;;;;0.00;0.00;;;;;;;;2785510;51;8846;-61
2021/09/26 14:00:50;;;;;;;;;0.00;0.00;;;;;;;;2785071;51;8764;-62
2021/09/26 14:03:15;;;;;;;;;0.00;0.00;;;;;;;;2785303;51;9360;-61
2021/09/26 14:05:41;;;;;;;;;0.00;0.00;;;;;;;;2785133;51;8768;-61
2021/09/26 14:08:07;;;;;;;;;0.00;0.00;;;;;;;;2785273;51;8763;-61
2021/09/26 14:10:33;;;;;;;;;0.00;0.00;;;;;;;;2785005;51;8832;-61
2021/09/26 14:13:02;;;;;;;;;0.00;0.00;;;;;;;;2785268;51;9345;-60
2021/09/26 14:15:28;;;;;;;;;1.25;0.50;;;;;;;;2785258;51;9372;-60
2021/09/26 14:17:53;;;;;;;;;0.00;0.00;;;;;;;;2782527;51;8875;-63
2021/09/26 14:20:19;;;;;;;;;0.00;0.00;;;;;;;;2779009;51;8778;-64
2021/09/26 14:22:45;;;;;;;;;2.00;0.00;;;;;;;;2779117;51;8888;-62
2021/09/26 14:25:10;;;;;;;;;0.00;0.00;;;;;;;;2778962;51;8795;-61
2021/09/26 14:27:36;;;;;;;;;0.00;0.00;;;;;;;;2778925;51;8771;-61
2021/09/26 14:30:04;;;;;;;;;0.00;0.00;;;;;;;;2778939;51;8814;-63
2021/09/26 14:32:30;;;;;;;;;0.00;0.00;;;;;;;;2778826;51;8851;-62
2021/09/26 14:34:56;;;;;;;;;1.33;0.00;;;;;;;;2778994;51;8909;-62
2021/09/26 14:37:22;;;;;;;;;0.00;0.00;;;;;;;;2778983;51;9427;-61
2021/09/26 14:39:48;;;;;;;;;0.00;0.00;;;;;;;;2779053;51;8793;-61
2021/09/26 14:42:13;;;;;;;;;0.00;0.00;;;;;;;;2779228;51;9447;-60
2021/09/26 14:44:39;;;;;;;;;1.00;0.00;;;;;;;;2778696;51;9513;-62
2021/09/26 14:47:05;;;;;;;;;0.00;0.00;;;;;;;;2778863;51;8775;-60
2021/09/26 14:49:30;;;;;;;;;0.00;0.00;;;;;;;;2781908;51;8812;-64
2021/09/26 14:51:56;;;;;;;;;0.33;0.33;;;;;;;;2784988;51;8780;-61
2021/09/26 14:54:22;;;;;;;;;0.00;0.00;;;;;;;;2784928;51;8782;-60